Terminal Aerodrome Forecast
Issued by NWS

Home | Current Version | Previous Version | Text Only | Print | Product List | Glossary On
Versions: 1 2 3 4 5 6 7 8 9 10 11 12 13 14 15 16 17 18 19 20
000
FTUS41 KPBZ 262327
TAFMGW
TAF
KMGW 262327Z 2700/2724 28006KT P6SM BKN035
     FM270400 28005KT P6SM SCT050
     FM270900 20005KT 3SM BR SKC
     FM271400 22010KT P6SM SKC=

USA.gov is the U.S. government's official web portal to all federal, state and local government web resources and services.